createdAt,value
2019-03-21T00:00:34.808Z,51.13
2019-03-21T00:03:05.494Z,55.47
2019-03-21T00:05:36.914Z,54.80
2019-03-21T00:08:09.067Z,50.90
2019-03-21T00:11:15.410Z,56.57
2019-03-21T00:13:45.858Z,57.90
2019-03-21T00:16:16.060Z,59.90
2019-03-21T00:18:46.256Z,62.00
2019-03-21T00:21:16.452Z,58.50
2019-03-21T00:23:46.768Z,67.57
2019-03-21T00:26:17.011Z,65.47
2019-03-21T00:28:47.207Z,65.57
2019-03-21T00:31:17.395Z,73.10
2019-03-21T00:33:47.939Z,66.17
2019-03-21T00:36:19.087Z,72.17
2019-03-21T00:38:49.263Z,64.80
2019-03-21T00:41:19.476Z,69.90
2019-03-21T00:43:49.659Z,62.70
2019-03-21T00:46:19.855Z,60.07
2019-03-21T00:48:50.015Z,65.97
2019-03-21T00:51:20.210Z,63.80
2019-03-21T00:53:50.476Z,69.87
2019-03-21T00:56:20.762Z,66.83
2019-03-21T00:58:50.983Z,78.10
2019-03-21T01:01:21.259Z,75.50
2019-03-21T01:03:51.567Z,82.23
2019-03-21T01:06:21.847Z,80.50
2019-03-21T01:08:53.525Z,83.97
2019-03-21T01:11:23.814Z,83.33
2019-03-21T01:13:54.041Z,76.93
2019-03-21T01:16:24.251Z,79.97
2019-03-21T01:18:55.576Z,79.80
2019-03-21T01:21:25.821Z,80.93
2019-03-21T01:23:56.098Z,87.07
2019-03-21T01:26:26.406Z,85.63
2019-03-21T01:28:56.619Z,78.53
2019-03-21T01:31:26.815Z,84.13
2019-03-21T01:33:58.108Z,87.60
2019-03-21T01:36:28.467Z,85.93
2019-03-21T01:38:58.718Z,85.90
2019-03-21T01:41:30.061Z,86.10
2019-03-21T01:44:00.294Z,83.73
2019-03-21T01:46:30.502Z,85.20
2019-03-21T01:49:00.735Z,84.43
2019-03-21T01:51:31.048Z,78.57
2019-03-21T01:54:01.411Z,85.27
2019-03-21T01:56:31.832Z,83.87
2019-03-21T01:59:02.071Z,82.40
2019-03-21T02:01:32.575Z,82.67
2019-03-21T02:04:02.791Z,90.30
2019-03-21T02:06:33.172Z,84.42
2019-03-21T02:09:05.471Z,76.77
2019-03-21T02:11:35.854Z,74.03
2019-03-21T02:14:06.203Z,78.50
2019-03-21T02:16:36.671Z,75.90
2019-03-21T02:19:06.991Z,69.27
2019-03-21T02:21:37.263Z,83.70
2019-03-21T02:24:08.668Z,84.87
2019-03-21T02:26:38.895Z,74.77
2019-03-21T02:29:11.476Z,77.03
2019-03-21T02:31:41.695Z,82.13
2019-03-21T02:34:11.863Z,84.07
2019-03-21T02:36:42.455Z,91.20
2019-03-21T02:39:12.636Z,77.37
2019-03-21T02:41:42.851Z,83.83
2019-03-21T02:44:13.046Z,86.40
2019-03-21T02:46:43.253Z,90.30
2019-03-21T02:49:13.454Z,86.10
2019-03-21T02:51:43.657Z,77.00
2019-03-21T02:54:13.996Z,83.40
2019-03-21T02:56:44.726Z,80.07
2019-03-21T02:59:14.902Z,76.00
2019-03-21T03:01:45.120Z,81.40
2019-03-21T03:04:15.308Z,81.27
2019-03-21T03:06:45.507Z,82.05
2019-03-21T03:09:15.688Z,84.33
2019-03-21T03:11:45.869Z,77.93
2019-03-21T03:14:16.051Z,90.67
2019-03-21T03:16:46.332Z,84.13
2019-03-21T03:19:16.525Z,76.77
2019-03-21T03:21:46.715Z,79.90
2019-03-21T03:24:17.687Z,77.50
2019-03-21T03:26:47.865Z,80.27
2019-03-21T03:29:18.088Z,82.30
2019-03-21T03:31:48.277Z,71.20
2019-03-21T03:34:18.608Z,76.80
2019-03-21T03:36:48.779Z,63.37
2019-03-21T03:39:19.079Z,64.63
2019-03-21T03:41:49.359Z,63.43
2019-03-21T03:44:19.558Z,67.33
2019-03-21T03:46:49.803Z,59.60
2019-03-21T03:49:20.015Z,63.73
2019-03-21T03:51:50.245Z,64.07
2019-03-21T03:54:20.521Z,63.27
2019-03-21T03:56:50.694Z,62.90
2019-03-21T03:59:21.092Z,72.93
2019-03-21T04:01:51.353Z,78.93
2019-03-21T04:04:21.897Z,71.70
2019-03-21T04:06:52.317Z,76.47
2019-03-21T04:09:22.583Z,67.77
2019-03-21T04:11:52.944Z,77.97
2019-03-21T04:14:23.217Z,77.17
2019-03-21T04:16:53.454Z,78.03
2019-03-21T04:19:23.797Z,74.03
2019-03-21T04:21:53.988Z,78.97
2019-03-21T04:24:24.379Z,78.47
2019-03-21T04:26:54.636Z,74.43
2019-03-21T04:29:24.888Z,69.10
2019-03-21T04:31:55.081Z,74.17
2019-03-21T04:34:25.286Z,71.00
2019-03-21T04:36:55.629Z,77.47
2019-03-21T04:39:25.878Z,74.63
2019-03-21T04:41:56.498Z,74.33
2019-03-21T04:44:26.752Z,75.33
2019-03-21T04:46:57.955Z,70.55
2019-03-21T04:49:28.180Z,74.47
2019-03-21T04:51:58.416Z,76.73
2019-03-21T04:54:28.627Z,71.53
2019-03-21T04:56:58.823Z,71.13
2019-03-21T04:59:28.995Z,72.53
2019-03-21T05:01:59.279Z,75.43
2019-03-21T05:04:29.496Z,72.13
2019-03-21T05:06:59.699Z,74.67
2019-03-21T05:09:35.165Z,69.37
2019-03-21T05:12:02.235Z,70.77
2019-03-21T05:14:32.423Z,78.93
2019-03-21T05:17:02.611Z,65.70
2019-03-21T05:19:32.798Z,69.27
2019-03-21T05:22:02.980Z,65.60
2019-03-21T05:24:33.221Z,70.27
2019-03-21T05:27:05.406Z,63.13
2019-03-21T05:29:35.583Z,69.13
2019-03-21T05:32:05.767Z,69.90
2019-03-21T05:34:35.951Z,73.33
2019-03-21T05:37:06.198Z,71.47
2019-03-21T05:39:41.518Z,71.07
2019-03-21T05:42:16.307Z,69.80
2019-03-21T05:44:47.668Z,71.07
2019-03-21T05:47:17.843Z,67.70
2019-03-21T05:49:48.137Z,69.47
2019-03-21T05:52:18.311Z,71.70
2019-03-21T05:54:48.484Z,68.93
2019-03-21T05:57:18.671Z,71.83
2019-03-21T05:59:48.871Z,74.17
2019-03-21T06:02:19.072Z,71.40
2019-03-21T06:04:49.267Z,67.87
2019-03-21T06:07:40.396Z,68.07
2019-03-21T06:10:11.967Z,64.13
2019-03-21T06:12:45.787Z,70.67
2019-03-21T06:15:18.900Z,69.00
2019-03-21T06:18:10.708Z,68.43
2019-03-21T06:21:04.336Z,72.27
2019-03-21T06:24:04.643Z,69.93
2019-03-21T06:26:57.739Z,71.67
2019-03-21T06:29:27.943Z,66.40
2019-03-21T06:31:58.119Z,70.70
2019-03-21T06:34:28.300Z,67.10
2019-03-21T06:36:58.503Z,63.97
2019-03-21T06:39:28.694Z,66.57
2019-03-21T06:41:58.931Z,61.93
2019-03-21T06:44:29.131Z,60.83
2019-03-21T06:46:59.311Z,60.90
2019-03-21T06:49:29.497Z,66.82
2019-03-21T06:51:59.687Z,56.87
2019-03-21T06:54:30.236Z,62.90
2019-03-21T06:57:02.354Z,72.53
2019-03-21T06:59:32.284Z,70.23
2019-03-21T07:02:02.633Z,74.60
2019-03-21T07:04:32.858Z,76.53
2019-03-21T07:07:08.154Z,82.97
2019-03-21T07:09:35.015Z,73.47
2019-03-21T07:12:05.664Z,73.40
2019-03-21T07:14:35.939Z,73.43
2019-03-21T07:17:06.255Z,76.90
2019-03-21T07:19:36.480Z,81.67
2019-03-21T07:22:06.696Z,84.20
2019-03-21T07:24:36.926Z,76.90
2019-03-21T07:27:07.115Z,84.33
2019-03-21T07:29:37.410Z,80.40
2019-03-21T07:32:08.624Z,72.40
2019-03-21T07:34:38.807Z,72.13
2019-03-21T07:37:09.007Z,63.67
2019-03-21T07:39:39.200Z,67.63
2019-03-21T07:42:09.370Z,63.00
2019-03-21T07:44:39.627Z,64.33
2019-03-21T07:47:13.134Z,62.17
2019-03-21T07:49:41.703Z,55.78
2019-03-21T07:52:11.885Z,57.30
2019-03-21T07:54:42.067Z,55.77
2019-03-21T07:57:12.262Z,52.60
2019-03-21T07:59:42.447Z,61.00
2019-03-21T08:02:12.843Z,55.40
2019-03-21T08:04:43.044Z,57.10
2019-03-21T08:07:13.212Z,49.07
2019-03-21T08:09:44.451Z,57.93
2019-03-21T08:12:14.719Z,64.47
2019-03-21T08:14:44.898Z,59.57
2019-03-21T08:17:15.056Z,62.50
2019-03-21T08:19:45.252Z,60.73
2019-03-21T08:22:15.422Z,70.17
2019-03-21T08:24:45.591Z,66.17
2019-03-21T08:27:15.758Z,66.43
2019-03-21T08:29:45.939Z,70.17
2019-03-21T08:32:16.119Z,66.05
2019-03-21T08:34:46.287Z,66.93
2019-03-21T08:37:16.458Z,68.47
2019-03-21T08:39:46.720Z,68.03
2019-03-21T08:42:16.979Z,72.63
2019-03-21T08:44:47.255Z,70.17
2019-03-21T08:47:17.416Z,68.07
2019-03-21T08:49:47.595Z,74.17
2019-03-21T08:52:17.827Z,68.27
2019-03-21T08:54:48.034Z,63.27
2019-03-21T08:57:18.233Z,60.60
2019-03-21T08:59:48.403Z,63.43
2019-03-21T09:02:18.588Z,57.27
2019-03-21T09:04:48.847Z,63.50
2019-03-21T09:07:19.018Z,56.10
2019-03-21T09:09:49.203Z,56.67
2019-03-21T09:12:19.447Z,57.00
2019-03-21T09:14:49.627Z,60.20
2019-03-21T09:17:19.796Z,53.13
2019-03-21T09:19:50.199Z,60.87
2019-03-21T09:22:20.598Z,50.87
2019-03-21T09:24:50.781Z,54.23
2019-03-21T09:27:20.975Z,50.60
2019-03-21T09:29:53.816Z,48.92
2019-03-21T09:32:23.959Z,46.17
2019-03-21T09:34:54.240Z,45.43
2019-03-21T09:37:24.438Z,53.28
2019-03-21T09:39:54.615Z,46.37
2019-03-21T09:42:24.928Z,54.47
2019-03-21T09:44:55.110Z,43.33
2019-03-21T09:47:25.303Z,44.63
2019-03-21T09:49:55.560Z,44.60
2019-03-21T09:52:25.735Z,38.37
2019-03-21T09:54:55.905Z,37.73
2019-03-21T09:57:26.087Z,37.50
2019-03-21T09:59:56.256Z,34.60
2019-03-21T10:02:26.487Z,35.00
2019-03-21T10:04:56.636Z,35.80
2019-03-21T10:07:26.812Z,32.27
2019-03-21T10:09:56.985Z,36.03
2019-03-21T10:12:27.193Z,31.35
2019-03-21T10:14:57.375Z,27.52
2019-03-21T10:17:27.567Z,25.60
2019-03-21T10:19:57.735Z,26.00
2019-03-21T10:22:27.937Z,30.57
2019-03-21T10:24:58.120Z,32.23
2019-03-21T10:27:28.301Z,37.63
2019-03-21T10:29:58.622Z,37.67
2019-03-21T10:32:28.931Z,37.27
2019-03-21T10:34:59.107Z,38.37
2019-03-21T10:37:29.342Z,39.10
2019-03-21T10:39:59.548Z,38.43
2019-03-21T10:42:29.731Z,42.20
2019-03-21T10:44:59.996Z,41.13
2019-03-21T10:47:30.235Z,40.33
2019-03-21T10:50:00.468Z,42.88
2019-03-21T10:52:30.799Z,45.33
2019-03-21T10:55:00.980Z,49.45
2019-03-21T10:57:31.243Z,42.98
2019-03-21T11:00:01.981Z,42.78
2019-03-21T11:02:33.623Z,42.73
2019-03-21T11:05:03.935Z,38.93
2019-03-21T11:07:35.171Z,40.80
2019-03-21T11:10:06.111Z,44.80
2019-03-21T11:12:36.353Z,43.52
2019-03-21T11:15:07.380Z,43.13
2019-03-21T11:17:37.777Z,41.88
2019-03-21T11:20:08.509Z,37.50
2019-03-21T11:22:38.775Z,43.97
2019-03-21T11:25:09.070Z,38.67
2019-03-21T11:27:39.327Z,50.00
2019-03-21T11:30:16.062Z,46.48
2019-03-21T11:32:41.714Z,43.38
2019-03-21T11:35:12.023Z,44.83
2019-03-21T11:37:42.260Z,45.83
2019-03-21T11:40:12.558Z,48.57
2019-03-21T11:42:42.837Z,47.23
2019-03-21T11:45:13.238Z,48.28
2019-03-21T11:47:44.694Z,44.75
2019-03-21T11:50:15.056Z,44.40
2019-03-21T11:52:45.390Z,45.15
2019-03-21T11:55:15.702Z,44.07
2019-03-21T11:57:45.991Z,53.08
2019-03-21T12:00:16.374Z,49.00
2019-03-21T12:02:46.771Z,48.38
2019-03-21T12:05:17.050Z,43.35
2019-03-21T12:07:47.280Z,44.55
2019-03-21T12:10:18.056Z,47.37
2019-03-21T12:12:48.693Z,42.60
2019-03-21T12:15:19.101Z,48.48
2019-03-21T12:17:49.435Z,47.78
2019-03-21T12:20:33.355Z,42.08
2019-03-21T12:23:04.176Z,45.45
2019-03-21T12:25:34.552Z,47.93
2019-03-21T12:28:05.667Z,41.50
2019-03-21T12:30:37.572Z,42.55
2019-03-21T12:33:08.099Z,43.80
2019-03-21T12:35:38.504Z,48.10
2019-03-21T12:38:09.160Z,44.03
2019-03-21T12:40:39.563Z,46.75
2019-03-21T12:43:09.885Z,47.90
2019-03-21T12:45:40.065Z,47.35
2019-03-21T12:48:10.462Z,45.00
2019-03-21T12:50:40.702Z,48.70
2019-03-21T12:53:10.940Z,46.60
2019-03-21T12:55:41.174Z,42.93
2019-03-21T12:58:11.461Z,44.80
2019-03-21T13:00:42.984Z,42.95
2019-03-21T13:03:13.552Z,42.73
2019-03-21T13:05:43.887Z,43.70
2019-03-21T13:08:14.270Z,44.88
2019-03-21T13:10:44.571Z,43.38
2019-03-21T13:13:15.250Z,47.90
2019-03-21T13:15:45.582Z,47.38
2019-03-21T13:18:15.900Z,41.15
2019-03-21T13:20:46.153Z,44.60
2019-03-21T13:23:16.362Z,45.80
2019-03-21T13:25:47.615Z,45.28
2019-03-21T13:28:17.838Z,43.42
2019-03-21T13:30:48.091Z,48.75
2019-03-21T13:33:18.752Z,44.83
2019-03-21T13:35:49.033Z,48.92
2019-03-21T13:38:19.274Z,44.33
2019-03-21T13:40:49.542Z,44.65
2019-03-21T13:43:19.769Z,43.75
2019-03-21T13:45:50.008Z,56.98
2019-03-21T13:48:20.268Z,42.20
2019-03-21T13:50:50.554Z,41.68
2019-03-21T13:53:20.779Z,45.80
2019-03-21T13:55:50.999Z,45.00
2019-03-21T13:58:21.227Z,44.25
2019-03-21T14:00:52.417Z,41.80
2019-03-21T14:03:25.301Z,48.20
2019-03-21T14:05:55.416Z,40.05
2019-03-21T14:08:25.820Z,43.83
2019-03-21T14:10:56.060Z,43.92
2019-03-21T14:13:26.343Z,41.10
2019-03-21T14:15:57.899Z,43.52
2019-03-21T14:18:28.504Z,41.83
2019-03-21T14:20:58.730Z,37.83
2019-03-21T14:23:28.939Z,37.83
2019-03-21T14:25:59.141Z,37.85
2019-03-21T14:28:29.332Z,34.23
2019-03-21T14:30:59.558Z,35.83
2019-03-21T14:33:29.824Z,40.23
2019-03-21T14:36:00.035Z,30.37
2019-03-21T14:38:30.326Z,29.80
2019-03-21T14:41:00.618Z,35.15
2019-03-21T14:43:30.838Z,31.12
2019-03-21T14:46:02.036Z,31.75
2019-03-21T14:48:32.191Z,30.92
2019-03-21T14:51:02.483Z,33.30
2019-03-21T14:53:32.748Z,31.33
2019-03-21T14:56:03.063Z,34.90
2019-03-21T14:58:33.307Z,33.13
2019-03-21T15:01:03.579Z,31.50
2019-03-21T15:03:33.848Z,30.75
2019-03-21T15:06:04.354Z,30.82
2019-03-21T15:08:34.599Z,33.13
2019-03-21T15:11:16.344Z,35.25
2019-03-21T15:13:37.525Z,34.80
2019-03-21T15:16:07.964Z,37.58
2019-03-21T15:18:38.242Z,39.80
2019-03-21T15:21:08.547Z,33.85
2019-03-21T15:23:41.002Z,37.23
2019-03-21T15:26:10.791Z,35.08
2019-03-21T15:28:41.095Z,36.10
2019-03-21T15:31:11.398Z,37.65
2019-03-21T15:33:41.640Z,38.70
2019-03-21T15:36:11.851Z,35.65
2019-03-21T15:38:42.087Z,37.83
2019-03-21T15:41:12.371Z,37.15
2019-03-21T15:43:42.721Z,35.60
2019-03-21T15:46:12.912Z,43.60
2019-03-21T15:48:43.306Z,37.67
2019-03-21T15:51:13.663Z,39.07
2019-03-21T15:53:54.821Z,38.98
2019-03-21T15:56:16.049Z,41.40
2019-03-21T15:58:46.356Z,46.88
2019-03-21T16:01:16.647Z,38.33
2019-03-21T16:03:48.126Z,47.55
2019-03-21T16:06:18.456Z,41.83
2019-03-21T16:08:48.838Z,45.90
2019-03-21T16:11:20.110Z,45.35
2019-03-21T16:13:50.591Z,46.90
2019-03-21T16:16:20.894Z,47.33
2019-03-21T16:18:51.453Z,49.15
2019-03-21T16:21:22.739Z,50.78
2019-03-21T16:24:04.155Z,51.33
2019-03-21T16:26:24.877Z,55.78
2019-03-21T16:28:55.336Z,55.88
2019-03-21T16:31:25.560Z,54.83
2019-03-21T16:33:55.784Z,50.80
2019-03-21T16:36:25.967Z,60.78
2019-03-21T16:38:56.599Z,55.50
2019-03-21T16:41:26.900Z,63.80
2019-03-21T16:43:57.233Z,68.85
2019-03-21T16:46:27.879Z,63.83
2019-03-21T16:48:58.219Z,62.58
2019-03-21T16:51:28.625Z,69.92
2019-03-21T16:53:58.897Z,57.95
2019-03-21T16:56:29.229Z,62.93
2019-03-21T16:58:59.491Z,61.95
2019-03-21T17:01:29.726Z,66.00
2019-03-21T17:04:00.332Z,64.85
2019-03-21T17:06:30.554Z,61.83
2019-03-21T17:09:00.858Z,65.90
2019-03-21T17:11:31.267Z,66.33
2019-03-21T17:14:01.530Z,67.70
2019-03-21T17:16:31.726Z,66.30
2019-03-21T17:19:01.982Z,63.45
2019-03-21T17:21:32.256Z,65.75
2019-03-21T17:24:03.627Z,64.25
2019-03-21T17:26:33.920Z,71.07
2019-03-21T17:29:05.185Z,68.00
2019-03-21T17:31:35.604Z,63.93
2019-03-21T17:34:05.888Z,64.63
2019-03-21T17:36:36.069Z,67.93
2019-03-21T17:39:08.659Z,59.33
2019-03-21T17:41:39.022Z,64.60
2019-03-21T17:44:09.288Z,68.60
2019-03-21T17:46:39.459Z,68.00
2019-03-21T17:49:10.771Z,63.63
2019-03-21T17:51:40.980Z,68.97
2019-03-21T17:54:11.236Z,66.93
2019-03-21T17:56:41.492Z,69.13
2019-03-21T17:59:11.680Z,70.75
2019-03-21T18:01:42.937Z,72.63
2019-03-21T18:04:13.204Z,69.57
2019-03-21T18:06:43.459Z,66.95
2019-03-21T18:09:13.672Z,64.87
2019-03-21T18:11:43.882Z,65.42
2019-03-21T18:14:14.160Z,63.08
2019-03-21T18:16:44.362Z,64.47
2019-03-21T18:19:14.550Z,63.28
2019-03-21T18:21:44.759Z,72.07
2019-03-21T18:24:15.923Z,67.53
2019-03-21T18:26:46.156Z,62.17
2019-03-21T18:29:16.470Z,70.23
2019-03-21T18:31:46.708Z,64.95
2019-03-21T18:34:17.193Z,67.93
2019-03-21T18:36:47.415Z,64.27
2019-03-21T18:39:19.904Z,71.70
2019-03-21T18:41:50.136Z,67.40
2019-03-21T18:44:20.350Z,64.37
2019-03-21T18:46:50.677Z,66.50
2019-03-21T18:49:21.939Z,69.67
2019-03-21T18:51:52.240Z,71.00
2019-03-21T18:54:22.491Z,66.20
2019-03-21T18:56:52.744Z,64.40
2019-03-21T18:59:22.979Z,63.33
2019-03-21T19:01:58.383Z,64.95
2019-03-21T19:04:25.128Z,68.40
2019-03-21T19:06:55.451Z,66.90
2019-03-21T19:09:25.767Z,73.37
2019-03-21T19:11:55.973Z,65.22
2019-03-21T19:14:26.174Z,70.70
2019-03-21T19:16:56.412Z,73.73
2019-03-21T19:19:26.709Z,68.17
2019-03-21T19:21:57.091Z,73.13
2019-03-21T19:24:27.425Z,64.67
2019-03-21T19:26:57.743Z,66.87
2019-03-21T19:29:28.069Z,66.40
2019-03-21T19:31:58.380Z,77.97
2019-03-21T19:34:28.655Z,72.33
2019-03-21T19:36:58.881Z,73.45
2019-03-21T19:39:29.128Z,77.37
2019-03-21T19:41:59.554Z,78.03
2019-03-21T19:44:29.902Z,75.93
2019-03-21T19:47:01.434Z,78.10
2019-03-21T19:49:31.836Z,80.53
2019-03-21T19:52:02.151Z,84.50
2019-03-21T19:54:32.352Z,82.50
2019-03-21T19:57:02.607Z,88.87
2019-03-21T19:59:33.828Z,90.23
2019-03-21T20:02:04.255Z,102.57
2019-03-21T20:04:34.476Z,101.27
2019-03-21T20:07:05.533Z,108.17
2019-03-21T20:09:35.831Z,105.57
2019-03-21T20:12:06.179Z,101.90
2019-03-21T20:14:36.378Z,105.23
2019-03-21T20:17:06.728Z,108.80
2019-03-21T20:19:37.189Z,117.40
2019-03-21T20:22:07.499Z,123.07
2019-03-21T20:24:37.924Z,123.63
2019-03-21T20:27:09.993Z,113.20
2019-03-21T20:29:40.391Z,108.87
2019-03-21T20:32:20.125Z,114.07
2019-03-21T20:34:42.675Z,115.40
2019-03-21T20:37:12.911Z,116.10
2019-03-21T20:39:43.229Z,110.33
2019-03-21T20:42:13.412Z,127.67
2019-03-21T20:44:43.671Z,123.13
2019-03-21T20:47:13.988Z,128.05
2019-03-21T20:49:44.229Z,110.10
2019-03-21T20:52:14.408Z,116.07
2019-03-21T20:54:44.689Z,128.63
2019-03-21T20:57:14.954Z,108.10
2019-03-21T20:59:45.211Z,112.20
2019-03-21T21:02:15.696Z,117.63
2019-03-21T21:04:47.438Z,121.37
2019-03-21T21:07:17.779Z,121.33
2019-03-21T21:09:47.988Z,101.83
2019-03-21T21:12:18.808Z,111.37
2019-03-21T21:14:49.015Z,107.27
2019-03-21T21:17:19.195Z,102.60
2019-03-21T21:19:49.432Z,93.17
2019-03-21T21:22:19.621Z,89.90
2019-03-21T21:24:49.922Z,95.87
2019-03-21T21:27:20.113Z,104.30
2019-03-21T21:29:51.389Z,104.97
2019-03-21T21:32:21.674Z,101.27
2019-03-21T21:34:54.438Z,114.83
2019-03-21T21:37:23.939Z,111.87
2019-03-21T21:39:54.261Z,110.80
2019-03-21T21:42:24.538Z,104.37
2019-03-21T21:44:54.926Z,92.03
2019-03-21T21:47:25.286Z,103.57
2019-03-21T21:49:55.735Z,102.30
2019-03-21T21:52:25.943Z,103.33
2019-03-21T21:54:56.140Z,112.13
2019-03-21T21:57:26.384Z,95.87
2019-03-21T21:59:56.584Z,98.10
2019-03-21T22:02:26.767Z,90.57
2019-03-21T22:04:57.028Z,93.83
2019-03-21T22:07:27.206Z,105.70
2019-03-21T22:09:57.415Z,101.23
2019-03-21T22:12:27.629Z,85.00
2019-03-21T22:14:57.927Z,87.00
2019-03-21T22:17:28.098Z,83.10
2019-03-21T22:19:58.300Z,82.87
2019-03-21T22:22:28.503Z,76.33
2019-03-21T22:24:58.713Z,74.23
2019-03-21T22:27:28.932Z,74.00
2019-03-21T22:29:59.119Z,73.20
2019-03-21T22:32:29.306Z,78.57
2019-03-21T22:34:59.476Z,77.47
2019-03-21T22:37:29.659Z,79.63
2019-03-21T22:39:59.847Z,77.83
2019-03-21T22:42:30.144Z,73.50
2019-03-21T22:45:00.355Z,74.97
2019-03-21T22:47:30.714Z,69.63
2019-03-21T22:50:01.014Z,80.80
2019-03-21T22:52:31.220Z,71.73
2019-03-21T22:55:01.397Z,67.73
2019-03-21T22:57:31.609Z,71.27
2019-03-21T23:00:01.794Z,70.53
2019-03-21T23:02:33.611Z,69.60
2019-03-21T23:05:04.556Z,66.67
2019-03-21T23:07:34.915Z,74.27
2019-03-21T23:10:06.096Z,74.67
2019-03-21T23:12:36.291Z,79.33
2019-03-21T23:15:07.804Z,74.73
2019-03-21T23:17:38.678Z,74.37
2019-03-21T23:20:10.607Z,80.22
2019-03-21T23:22:41.011Z,81.07
2019-03-21T23:25:11.510Z,65.60
2019-03-21T23:27:41.704Z,76.23
2019-03-21T23:30:12.324Z,68.03
2019-03-21T23:32:42.515Z,97.30
2019-03-21T23:35:12.862Z,76.83
2019-03-21T23:37:43.137Z,89.60
2019-03-21T23:40:13.417Z,77.13
2019-03-21T23:42:43.774Z,66.73
2019-03-21T23:45:14.445Z,67.83
2019-03-21T23:47:44.686Z,69.97
2019-03-21T23:50:15.163Z,79.27
2019-03-21T23:52:45.375Z,64.30
2019-03-21T23:55:15.768Z,61.10
2019-03-21T23:57:45.977Z,60.60
